Terminal Aerodrome Forecast
Issued by NWS

Home | Current Version | Previous Version | Graphics & Text | Print | Product List | Glossary On
Versions: 1 2 3 4 5 6 7 8 9 10 11 12 13 14 15 16 17 18 19 20 21 22 23 24 25 26 27 28 29 30 31 32 33
000
FTUS43 KABR 011300 AAB
TAFATY
TAF AMD
KATY 011347Z 0114/0212 01017KT P6SM OVC050
      TEMPO 0114/0117 3SM -SN
     FM011900 36015KT P6SM SCT250
     FM020100 VRB05KT P6SM BKN250=

USA.gov is the U.S. government's official web portal to all federal, state and local government web resources and services.